Dobrodošli na spletni strani vremenske postaje Senovo. Vse informacije so informativnega značaja, saj vremenska postaja ni del državne mreže meteoroloških postaj. AKTUALNIH OBVESTIL NI.


Sneg/Led Od: 21-02-2018 00:00 Do: 23-02-2018 23:59 Opozorilo za: Sneg/Led Stopnja: Rumena info button
Veter Od: 21-02-2018 00:00 Do: 22-02-2018 23:59 Opozorilo za: Veter Stopnja: Rumena info button

Pogled proti Armezu več informacij Pogled proti Armezu


Lisca več informacij Lisca


Radar strel več informacij blitzortung!


opozorilo za sneg/led več informacij rain snow radar


Obiščite še:

Template documentation
and downloads

And another site



Weather Underground, zgodovina - Tekstovno

Dnevni povzetek za Maj 7, 2017 Enote:  Metrično    Angleško   Obe
« Predhodni Dan
Naslednji Dan »
Dnevni Tedenski Mesečni Letni Po meri
  Višja: Nižja: Povprečje:
Temperatura: -17.8 °C -12.7 °C -10.1 °C
Točka rosišča: -17.8 °C -13.4 °C -11.9 °C
Vlažnost: Humidity % 66 % 81 %
Hitrost vetra: 0 km/h 0 km/h 3.4 km/h
Sunki vetra: 0 km/h - -
Veter:- - SSE
Zračni tlak: 0 hPa 34029.3 hPa -
Padavine: 0 mm    
Historical Graphs
 
 
Tabelarni podarki za Maj 7, 2017
Čas Temperatura Točka rosišča Zračni tlak Veter Hitrost vetra Sunki vetra Vlažnost Intenziteta padavin (urna)
-17.8 °C -17.8 °C 0 hPa Calm     Humidity % 0 mm
00:00 -10.8 °C -13.1 °C 34097 hPa SSW 5.6 km/h 11.1 km/h 76 % 7.62 mm
00:05 -10.8 °C -13 °C 34097 hPa SSW 2.3 km/h 6.9 km/h 77 % 7.62 mm
00:10 -10.9 °C -12.9 °C 34097 hPa North 0.3 km/h   78 % 7.62 mm
00:15 -10.9 °C -12.9 °C 34097 hPa Calm     79 % 7.62 mm
00:20 -10.9 °C -12.8 °C 34097 hPa SSE 1.6 km/h 7.6 km/h 80 % 12.7 mm
00:25 -11 °C -12.9 °C 34097 hPa SSE 3.9 km/h 8.9 km/h 80 % 12.7 mm
00:30 -11.1 °C -12.8 °C 34130.9 hPa SSE 2.6 km/h 8.9 km/h 81 % 12.7 mm
00:35 -11.1 °C -12.9 °C 34130.9 hPa NW 0.5 km/h 6.9 km/h 80 % 12.7 mm
00:40 -11.1 °C -12.8 °C 34130.9 hPa NW 1.3 km/h 6.9 km/h 82 % 12.7 mm
00:45 -11.2 °C -12.7 °C 34130.9 hPa NW 1 km/h 6.4 km/h 83 % 20.32 mm
00:50 -11.2 °C -12.8 °C 34130.9 hPa Calm   2.9 km/h 83 % 20.32 mm
00:55 -11.2 °C -12.7 °C 34130.9 hPa SW 1 km/h 9.3 km/h 84 % 25.4 mm
01:00 -11.3 °C -12.6 °C 34130.9 hPa SW 2.3 km/h 9.3 km/h 85 % 33.02 mm
01:05 -11.3 °C -12.6 °C 34130.9 hPa SW 3.4 km/h 8 km/h 85 % 33.02 mm
01:10 -11.3 °C -12.6 °C 34130.9 hPa SW 5 km/h 8 km/h 85 % 38.1 mm
01:16 -11.3 °C -12.7 °C 34130.9 hPa SW 5 km/h 9.3 km/h 85 % 38.1 mm
01:21 -11.3 °C -12.7 °C 34130.9 hPa SSW 3.4 km/h 9.3 km/h 85 % 38.1 mm
01:26 -11.3 °C -12.6 °C 34130.9 hPa SSW 3.1 km/h 9.3 km/h 86 % 45.72 mm
01:31 -11.4 °C -12.7 °C 34130.9 hPa SSW 3.9 km/h 9.3 km/h 86 % 38.1 mm
01:36 -11.4 °C -12.7 °C 34130.9 hPa SSW 4.7 km/h 8 km/h 86 % 38.1 mm
01:41 -11.4 °C -12.7 °C 34130.9 hPa SSW 4.2 km/h 8.9 km/h 86 % 38.1 mm
01:46 -11.4 °C -12.6 °C 34130.9 hPa SSW 4.2 km/h 9.8 km/h 87 % 38.1 mm
01:51 -11.4 °C -12.6 °C 34130.9 hPa SW 5 km/h 9.8 km/h 87 % 38.1 mm
01:56 -11.4 °C -12.5 °C 34130.9 hPa SW 5 km/h 9.3 km/h 88 % 33.02 mm
02:01 -11.4 °C -12.5 °C 34097 hPa SW 4.7 km/h 8.9 km/h 88 % 33.02 mm
02:06 -11.4 °C -12.5 °C 34097 hPa SW 5.5 km/h 9.8 km/h 88 % 25.4 mm
02:11 -11.5 °C -12.6 °C 34097 hPa SW 5 km/h 9.8 km/h 88 % 25.4 mm
02:16 -11.5 °C -12.4 °C 34097 hPa SW 3.9 km/h 7.6 km/h 89 % 25.4 mm
02:21 -11.5 °C -12.4 °C 34097 hPa WSW 4.3 km/h 9.8 km/h 89 % 25.4 mm
02:26 -11.5 °C -12.4 °C 34097 hPa SW 3.4 km/h 9.8 km/h 89 % 25.4 mm
02:31 -11.5 °C -12.4 °C 34097 hPa South 2.6 km/h 7.6 km/h 89 % 25.4 mm
02:36 -11.5 °C -12.4 °C 34097 hPa South 2.6 km/h 7.6 km/h 89 % 25.4 mm
02:41 -11.5 °C -12.4 °C 34097 hPa South 1 km/h 5.6 km/h 89 % 33.02 mm
02:46 -11.5 °C -12.4 °C 34097 hPa Calm     90 % 25.4 mm
02:51 -11.5 °C -12.4 °C 34097 hPa Calm     90 % 33.02 mm
02:56 -11.6 °C -12.4 °C 34097 hPa Calm     90 % 33.02 mm
03:01 -11.6 °C -12.4 °C 34097 hPa Calm     90 % 33.02 mm
03:06 -11.5 °C -12.4 °C 34097 hPa Calm     90 % 33.02 mm
03:11 -11.5 °C -12.4 °C 34097 hPa Calm     90 % 33.02 mm
03:16 -11.5 °C -12.3 °C 34063.2 hPa Calm     91 % 33.02 mm
03:21 -11.5 °C -12.3 °C 34063.2 hPa Calm   7.6 km/h 91 % 33.02 mm
03:26 -11.6 °C -12.3 °C 34063.2 hPa SSE 1.8 km/h 7.6 km/h 91 % 25.4 mm
03:31 -11.6 °C -12.3 °C 34063.2 hPa SSE 3.1 km/h 6.4 km/h 91 % 25.4 mm
03:36 -11.6 °C -12.3 °C 34063.2 hPa SSE 2.6 km/h 6.4 km/h 91 % 25.4 mm
03:42 -11.6 °C -12.3 °C 34063.2 hPa SSE 2.3 km/h 5.6 km/h 91 % 25.4 mm
03:46 -11.6 °C -12.3 °C 34063.2 hPa SSE 1 km/h 5.6 km/h 91 % 25.4 mm
03:51 -11.6 °C -12.4 °C 34063.2 hPa Calm     91 % 25.4 mm
03:57 -11.6 °C -12.4 °C 34063.2 hPa Calm     91 % 25.4 mm
04:02 -11.6 °C -12.3 °C 34029.3 hPa Calm     92 % 33.02 mm
04:07 -11.6 °C -12.3 °C 34029.3 hPa Calm     92 % 25.4 mm
04:12 -11.6 °C -12.3 °C 34029.3 hPa Calm     92 % 33.02 mm
04:17 -11.6 °C -12.3 °C 34029.3 hPa WSW 0.3 km/h 3.4 km/h 92 % 25.4 mm
04:22 -11.6 °C -12.3 °C 34029.3 hPa WSW 1.3 km/h 5.1 km/h 92 % 25.4 mm
04:27 -11.6 °C -12.3 °C 34029.3 hPa WSW 1.6 km/h 5.1 km/h 92 % 25.4 mm
04:32 -11.6 °C -12.3 °C 34029.3 hPa WSW 0.5 km/h 3.4 km/h 92 % 25.4 mm
04:37 -11.6 °C -12.3 °C 34029.3 hPa Calm     92 % 25.4 mm
04:42 -11.6 °C -12.3 °C 34029.3 hPa Calm     92 % 20.32 mm
04:47 -11.6 °C -12.3 °C 34063.2 hPa Calm     92 % 20.32 mm
04:52 -11.6 °C -12.3 °C 34063.2 hPa Calm     92 % 20.32 mm
04:57 -11.6 °C -12.3 °C 34063.2 hPa Calm     92 % 12.7 mm
05:02 -11.6 °C -12.3 °C 34029.3 hPa Calm     92 % 7.62 mm
05:07 -11.6 °C -12.2 °C 34029.3 hPa WSW 0.5 km/h 4.2 km/h 93 % 7.62 mm
05:12 -11.6 °C -12.2 °C 34029.3 hPa WSW 0.5 km/h 4.2 km/h 93 % 7.62 mm
05:17 -11.6 °C -12.2 °C 34063.2 hPa SSE 2.3 km/h 7.6 km/h 93 % 7.62 mm
05:22 -11.6 °C -12.2 °C 34063.2 hPa SSE 2.9 km/h 7.6 km/h 93 % 0 mm
05:27 -11.6 °C -12.2 °C 34063.2 hPa ESE 0.5 km/h 3.4 km/h 93 % 0 mm
05:32 -11.6 °C -12.2 °C 34063.2 hPa Calm   3.4 km/h 93 % 7.62 mm
05:37 -11.6 °C -12.2 °C 34063.2 hPa SSW 0.5 km/h 3.4 km/h 93 % 7.62 mm
05:42 -11.6 °C -12.2 °C 34063.2 hPa SSW 0.5 km/h 3.4 km/h 93 % 7.62 mm
05:47 -11.6 °C -12.2 °C 34063.2 hPa Calm     93 % 7.62 mm
05:52 -11.6 °C -12.2 °C 34063.2 hPa Calm     93 % 7.62 mm
05:57 -11.6 °C -12.2 °C 34063.2 hPa Calm   5.6 km/h 93 % 7.62 mm
06:02 -11.6 °C -12.2 °C 34097 hPa SW 2.1 km/h 6.4 km/h 93 % 7.62 mm
06:07 -11.6 °C -12.2 °C 34097 hPa SW 3.7 km/h 6.4 km/h 93 % 7.62 mm
06:12 -11.6 °C -12.2 °C 34097 hPa SSW 2.3 km/h 6.4 km/h 93 % 7.62 mm
06:17 -11.6 °C -12.2 °C 34063.2 hPa SSE 0.8 km/h 5.1 km/h 93 % 7.62 mm
06:22 -11.6 °C -12.2 °C 34063.2 hPa SE 1 km/h 5.6 km/h 93 % 7.62 mm
06:27 -11.6 °C -12.2 °C 34063.2 hPa SSE 2.3 km/h 6.4 km/h 93 % 0 mm
06:32 -11.6 °C -12.2 °C 34063.2 hPa South 2.3 km/h 6.4 km/h 93 % 0 mm
06:37 -11.5 °C -12.1 °C 34063.2 hPa SSW 1.8 km/h 6.9 km/h 93 % 0 mm
06:42 -11.5 °C -12.1 °C 34063.2 hPa SSW 2.1 km/h 6.9 km/h 93 % 0 mm
06:47 -11.5 °C -12.1 °C 34063.2 hPa SSW 1 km/h 6.9 km/h 93 % 0 mm
06:52 -11.5 °C -12.1 °C 34063.2 hPa SW 0.5 km/h 5.1 km/h 93 % 0 mm
06:57 -11.5 °C -12.1 °C 34063.2 hPa SW 0.8 km/h 5.1 km/h 93 % 0 mm
07:02 -11.5 °C -12.1 °C 34063.2 hPa WSW 1.3 km/h 6.9 km/h 93 % 0 mm
07:07 -11.5 °C -12.1 °C 34063.2 hPa West 2.1 km/h 6.9 km/h 93 % 0 mm
07:12 -11.5 °C -12.1 °C 34063.2 hPa NE 1.8 km/h 6.4 km/h 93 % 0 mm
07:17 -11.4 °C -12.1 °C 34063.2 hPa East 1.3 km/h 6.4 km/h 93 % 0 mm
07:22 -11.4 °C -12.1 °C 34063.2 hPa SSE 2.6 km/h 9.8 km/h 93 % 0 mm
07:27 -11.4 °C -12 °C 34063.2 hPa South 4.2 km/h 9.8 km/h 93 % 0 mm
07:32 -11.3 °C -11.9 °C 34063.2 hPa SSW 3.1 km/h 7.6 km/h 93 % 0 mm
07:37 -11.2 °C -11.7 °C 34063.2 hPa SSW 2.3 km/h 6.9 km/h 94 % 0 mm
07:42 -11.2 °C -11.7 °C 34063.2 hPa SSW 2.9 km/h 6.9 km/h 94 % 0 mm
07:47 -11.1 °C -11.7 °C 34063.2 hPa WSW 3.4 km/h 9.3 km/h 93 % 0 mm
07:52 -11.1 °C -11.7 °C 34063.2 hPa WSW 4.7 km/h 11.1 km/h 93 % 0 mm
07:57 -11.1 °C -11.7 °C 34063.2 hPa SW 5.6 km/h 11.1 km/h 93 % 0 mm
08:02 -11 °C -11.6 °C 34063.2 hPa SW 5.6 km/h 12.2 km/h 93 % 0 mm
08:07 -10.9 °C -11.6 °C 34063.2 hPa SSW 6.3 km/h 12.2 km/h 93 % 0 mm
08:12 -10.9 °C -11.5 °C 34063.2 hPa SSW 6.4 km/h 12.2 km/h 93 % 0 mm
08:17 -10.9 °C -11.6 °C 34063.2 hPa SSW 4.7 km/h 9.3 km/h 92 % 0 mm
08:22 -10.8 °C -11.6 °C 34063.2 hPa South 3.1 km/h 11.6 km/h 92 % 0 mm
08:27 -10.8 °C -11.5 °C 34063.2 hPa South 3.4 km/h 11.6 km/h 92 % 0 mm
08:32 -10.7 °C -11.3 °C 34097 hPa SSW 6.4 km/h 14.5 km/h 92 % 0 mm
08:37 -10.6 °C -11.3 °C 34097 hPa South 7.7 km/h 14.5 km/h 92 % 0 mm
08:43 -10.5 °C -11.3 °C 34097 hPa South 6.8 km/h 11.1 km/h 91 % 0 mm
08:48 -10.4 °C -11.2 °C 34097 hPa South 5.5 km/h 9.8 km/h 91 % 0 mm
08:53 -10.4 °C -11.2 °C 34097 hPa SSE 5.1 km/h 9.3 km/h 91 % 0 mm
08:58 -10.2 °C -10.9 °C 34097 hPa SE 7.2 km/h 14 km/h 91 % 0 mm
09:03 -9.9 °C -10.8 °C 34097 hPa SE 7.7 km/h 14 km/h 90 % 0 mm
09:08 -9.8 °C -10.8 °C 34097 hPa SE 6.4 km/h 12.2 km/h 89 % 0 mm
09:13 -9.7 °C -10.7 °C 34097 hPa SSE 5.1 km/h 11.1 km/h 89 % 0 mm
09:18 -9.4 °C -10.6 °C 34130.9 hPa ESE 3.7 km/h 12.7 km/h 88 % 0 mm
09:23 -9.2 °C -10.4 °C 34130.9 hPa ESE 5.6 km/h 14.5 km/h 87 % 0 mm
09:28 -9.1 °C -10.4 °C 34130.9 hPa ESE 8.2 km/h 14.5 km/h 86 % 0 mm
09:33 -9 °C -10.4 °C 34130.9 hPa SE 6.9 km/h 14 km/h 85 % 0 mm
09:38 -8.9 °C -10.6 °C 34130.9 hPa SE 6.4 km/h 14 km/h 83 % 0 mm
09:43 -8.8 °C -10.4 °C 34130.9 hPa SE 5.6 km/h 11.1 km/h 83 % 0 mm
09:48 -8.6 °C -10.2 °C 34130.9 hPa SE 7.2 km/h 15 km/h 83 % 0 mm
09:53 -8.5 °C -10.3 °C 34130.9 hPa ESE 7.6 km/h 15 km/h 81 % 0 mm
09:58 -8.3 °C -10.2 °C 34130.9 hPa SE 6 km/h 11.6 km/h 81 % 0 mm
10:03 -8.4 °C -10.4 °C 34164.7 hPa SE 4.7 km/h 11.6 km/h 79 % 0 mm
10:08 -8.3 °C -10.4 °C 34164.7 hPa SE 4.7 km/h 15.6 km/h 79 % 0 mm
10:13 -8.3 °C -10.5 °C 34164.7 hPa ESE 6 km/h 15.6 km/h 78 % 0 mm
10:18 -8.4 °C -10.6 °C 34130.9 hPa SE 5.5 km/h 15 km/h 78 % 0 mm
10:23 -8.5 °C -10.7 °C 34130.9 hPa SE 3.4 km/h 15 km/h 78 % 0 mm
10:28 -8.6 °C -10.8 °C 34130.9 hPa SSE 2.1 km/h 8.9 km/h 77 % 0 mm
10:33 -8.6 °C -10.7 °C 34130.9 hPa SE 2.1 km/h 7.6 km/h 78 % 0 mm
10:38 -8.6 °C -10.9 °C 34130.9 hPa NE 3.7 km/h 14 km/h 76 % 0 mm
10:43 -8.5 °C -10.7 °C 34130.9 hPa ENE 5 km/h 14 km/h 77 % 0 mm
10:48 -8.4 °C -10.8 °C 34130.9 hPa ESE 4.7 km/h 10.3 km/h 76 % 0 mm
10:53 -8.4 °C -10.9 °C 34130.9 hPa SE 4.7 km/h 10.3 km/h 75 % 0 mm
10:58 -8.4 °C -11.2 °C 34130.9 hPa ENE 9 km/h 16.3 km/h 73 % 0 mm
11:03 -8.5 °C -11.6 °C 34097 hPa NE 13.2 km/h 16.3 km/h 70 % 0 mm
11:08 -8.5 °C -11.6 °C 34097 hPa NNE 12.4 km/h 16.3 km/h 70 % 0 mm
11:13 -8.5 °C -11.4 °C 34097 hPa NNE 9.3 km/h 16.3 km/h 71 % 0 mm
11:18 -8.6 °C -11.7 °C 34130.9 hPa NE 9 km/h 19.6 km/h 69 % 0 mm
11:23 -8.7 °C -11.8 °C 34130.9 hPa North 10.6 km/h 25.4 km/h 69 % 0 mm
11:28 -8.7 °C -11.8 °C 34130.9 hPa North 8 km/h 25.4 km/h 70 % 0 mm
11:33 -8.7 °C -11.8 °C 34130.9 hPa ENE 8 km/h 22.5 km/h 70 % 0 mm
11:38 -8.8 °C -11.9 °C 34130.9 hPa East 9.7 km/h 22.5 km/h 69 % 0 mm
11:43 -8.8 °C -11.9 °C 34130.9 hPa ESE 8.9 km/h 8.9 km/h 70 % 0 mm
11:48 -8.9 °C -11.9 °C 34130.9 hPa ESE 8.9 km/h 8.9 km/h 70 % 0 mm
11:53 -8.9 °C -11.8 °C 34130.9 hPa ENE 9 km/h 9 km/h 71 % 0 mm
11:58 -8.8 °C -11.7 °C 34130.9 hPa ENE 8 km/h 9.3 km/h 71 % 0 mm
12:03 -8.7 °C -11.6 °C 34130.9 hPa NE 6.8 km/h 12.7 km/h 71 % 0 mm
12:05 -8.7 °C -11.6 °C 34130.9 hPa NE 6 km/h 12.7 km/h 71 % 0 mm
12:10 -8.8 °C -11.8 °C 34130.9 hPa NE 4.3 km/h 12.7 km/h 71 % 0 mm
12:15 -8.9 °C -11.7 °C 34164.7 hPa NE 2.3 km/h 9.3 km/h 72 % 0 mm
12:20 -8.9 °C -11.8 °C 34164.7 hPa NE 3.9 km/h 9.3 km/h 72 % 0 mm
12:25 -8.9 °C -11.8 °C 34164.7 hPa NE 4.2 km/h 8.9 km/h 72 % 0 mm
12:30 -9 °C -11.8 °C 34130.9 hPa NNE 4.3 km/h 8.9 km/h 72 % 0 mm
12:35 -8.9 °C -11.6 °C 34130.9 hPa NE 5.6 km/h 7.6 km/h 73 % 0 mm
12:40 -8.9 °C -11.7 °C 34130.9 hPa ENE 6.3 km/h 10.3 km/h 72 % 0 mm
12:45 -8.9 °C -11.7 °C 34164.7 hPa ENE 6.9 km/h 15 km/h 72 % 0 mm
12:50 -8.8 °C -11.6 °C 34164.7 hPa ENE 7.6 km/h 15 km/h 72 % 0 mm
12:55 -8.9 °C -11.8 °C 34164.7 hPa ENE 6.4 km/h 14.5 km/h 71 % 0 mm
13:00 -8.9 °C -11.8 °C 34164.7 hPa NE 4.2 km/h 8.9 km/h 71 % 0 mm
13:05 -8.9 °C -11.8 °C 34164.7 hPa NNE 3.7 km/h 8 km/h 71 % 0 mm
13:10 -8.9 °C -11.8 °C 34164.7 hPa NE 5.6 km/h 14.5 km/h 71 % 0 mm
13:15 -8.9 °C -11.8 °C 34164.7 hPa NNE 8 km/h 18.7 km/h 71 % 0 mm
13:20 -8.9 °C -11.8 °C 34164.7 hPa NNE 9.7 km/h 26.7 km/h 71 % 0 mm
13:23 -8.9 °C -11.8 °C 34164.7 hPa NNE 9.7 km/h 26.7 km/h 71 % 0 mm
13:28 -8.9 °C -11.8 °C 34164.7 hPa NE 9.7 km/h 26.7 km/h 71 % 0 mm
13:33 -8.9 °C -11.8 °C 34164.7 hPa ENE 6.3 km/h 11.1 km/h 71 % 0 mm
13:36 -8.9 °C -11.8 °C 34164.7 hPa NE 6.4 km/h 11.1 km/h 71 % 0 mm
13:41 -8.9 °C -11.8 °C 34164.7 hPa NE 6.3 km/h 10.3 km/h 71 % 0 mm
13:46 -8.8 °C -11.7 °C 34164.7 hPa NNE 4.2 km/h 5.1 km/h 71 % 0 mm
13:52 -8.7 °C -11.6 °C 34164.7 hPa ENE 5.6 km/h 15 km/h 71 % 0 mm
14:02 -8.6 °C -11.5 °C 34164.7 hPa East 6.3 km/h 19.6 km/h 71 % 0 mm
14:07 -8.5 °C -11.4 °C 34164.7 hPa East 0.5 km/h 9.3 km/h 71 % 0 mm
14:12 -8.4 °C -11.5 °C 34164.7 hPa Calm   8.9 km/h 70 % 0 mm
14:17 -8.4 °C -11.5 °C 34164.7 hPa NNE 3.4 km/h 16.9 km/h 70 % 0 mm
14:22 -8.4 °C -11.5 °C 34164.7 hPa NNE 6.3 km/h 16.9 km/h 70 % 0 mm
14:27 -8.5 °C -11.6 °C 34164.7 hPa NNE 7.7 km/h 16.9 km/h 70 % 0 mm
14:32 -8.6 °C -11.6 °C 34164.7 hPa North 8.9 km/h 15.6 km/h 70 % 0 mm
14:37 -8.6 °C -11.6 °C 34164.7 hPa NNE 7.7 km/h 15.6 km/h 70 % 0 mm
14:42 -8.4 °C -11.4 °C 34164.7 hPa NNE 5 km/h 15 km/h 71 % 0 mm
14:47 -8.4 °C -11.3 °C 34164.7 hPa NE 4.7 km/h 9.8 km/h 71 % 0 mm
14:52 -8.3 °C -11.5 °C 34164.7 hPa NE 6.9 km/h 12.7 km/h 69 % 0 mm
14:57 -8.3 °C -11.6 °C 34164.7 hPa ENE 7.7 km/h 12.7 km/h 68 % 0 mm
15:02 -8.2 °C -11.4 °C 34164.7 hPa ENE 6.8 km/h 11.1 km/h 69 % 0 mm
15:07 -8.2 °C -11.5 °C 34164.7 hPa ENE 6 km/h 11.1 km/h 68 % 0 mm
15:12 -8.2 °C -11.5 °C 34164.7 hPa East 6.3 km/h 14 km/h 68 % 0 mm
15:17 -8.2 °C -11.6 °C 34164.7 hPa East 7.6 km/h 15 km/h 68 % 0 mm
15:18 -8.2 °C -11.6 °C 34164.7 hPa East 7.6 km/h 15 km/h 68 % 0 mm
15:23 -8.3 °C -11.7 °C 34164.7 hPa ENE 8.2 km/h 15 km/h 67 % 0 mm
15:28 -8.3 °C -11.8 °C 34164.7 hPa ENE 7.6 km/h 16.3 km/h 67 % 0 mm
15:33 -8.4 °C -11.8 °C 34164.7 hPa ENE 7.7 km/h 16.3 km/h 67 % 0 mm
15:38 -8.4 °C -11.7 °C 34164.7 hPa ENE 7.7 km/h 16.3 km/h 68 % 0 mm
15:43 -8.4 °C -11.6 °C 34164.7 hPa ENE 4.3 km/h 15.6 km/h 69 % 0 mm
15:48 -8.3 °C -11.5 °C 34164.7 hPa NE 2.6 km/h 6.9 km/h 69 % 0 mm
15:53 -8.4 °C -11.6 °C 34164.7 hPa ENE 4.2 km/h 10.3 km/h 69 % 0 mm
15:58 -8.4 °C -11.7 °C 34164.7 hPa ENE 6.9 km/h 14.5 km/h 68 % 0 mm
16:03 -8.4 °C -11.6 °C 34164.7 hPa East 8 km/h 16.9 km/h 69 % 0 mm
16:08 -8.4 °C -11.7 °C 34164.7 hPa East 6.9 km/h 16.9 km/h 68 % 0 mm
16:13 -8.4 °C -11.8 °C 34164.7 hPa ENE 7.2 km/h 16.9 km/h 67 % 0 mm
16:18 -8.4 °C -11.8 °C 34164.7 hPa ENE 10.6 km/h 16.9 km/h 67 % 0 mm
16:23 -8.4 °C -11.7 °C 34164.7 hPa NE 10.9 km/h 16.9 km/h 68 % 0 mm
16:28 -8.3 °C -11.8 °C 34164.7 hPa NE 8.2 km/h 14.5 km/h 67 % 0 mm
16:33 -8.3 °C -11.7 °C 34130.9 hPa ENE 7.2 km/h 15 km/h 67 % 0 mm
16:38 -8.3 °C -11.7 °C 34130.9 hPa East 6 km/h 15 km/h 67 % 0 mm
16:43 -8.3 °C -11.7 °C 34130.9 hPa ENE 6 km/h 11.1 km/h 67 % 0 mm
16:48 -8.3 °C -11.6 °C 34130.9 hPa NE 6 km/h 9.8 km/h 68 % 0 mm
16:53 -8.3 °C -11.6 °C 34130.9 hPa NE 2.9 km/h 9.3 km/h 68 % 0 mm
16:58 -8.2 °C -11.6 °C 34130.9 hPa SE 2.9 km/h 9.8 km/h 68 % 0 mm
17:03 -8.2 °C -11.6 °C 34130.9 hPa SE 4.7 km/h 9.8 km/h 68 % 0 mm
17:08 -8.2 °C -11.5 °C 34130.9 hPa SE 2.6 km/h 6.9 km/h 68 % 0 mm
17:13 -8.1 °C -11.4 °C 34130.9 hPa SE 3.1 km/h 7.6 km/h 68 % 0 mm
17:18 -8.1 °C -11.4 °C 34097 hPa SE 3.4 km/h 7.6 km/h 68 % 0 mm
17:23 -7.9 °C -11.5 °C 34097 hPa East 3.1 km/h 9.8 km/h 66 % 0 mm
17:28 -7.9 °C -11.3 °C 34097 hPa ESE 4.7 km/h 14 km/h 68 % 0 mm
17:33 -7.9 °C -11.2 °C 34097 hPa SSE 5.5 km/h 14 km/h 69 % 0 mm
17:38 -8 °C -11.2 °C 34097 hPa SSW 4.7 km/h 9.8 km/h 69 % 0 mm
17:43 -8 °C -11.2 °C 34097 hPa South 2.9 km/h 8 km/h 69 % 0 mm
17:48 -8 °C -11.1 °C 34130.9 hPa South 1.3 km/h 5.6 km/h 70 % 0 mm
17:53 -7.9 °C -10.9 °C 34130.9 hPa SW 1.8 km/h 6.4 km/h 70 % 0 mm
17:58 -7.8 °C -10.9 °C 34130.9 hPa SW 2.9 km/h 6.4 km/h 70 % 0 mm
18:03 -7.9 °C -10.9 °C 34130.9 hPa South 1.8 km/h 6.4 km/h 70 % 0 mm
18:08 -7.8 °C -10.9 °C 34130.9 hPa SE 3.1 km/h 8 km/h 70 % 0 mm
18:13 -7.9 °C -10.9 °C 34130.9 hPa SE 4.7 km/h 8 km/h 70 % 0 mm
18:18 -7.9 °C -11 °C 34130.9 hPa South 3.4 km/h 8 km/h 70 % 0 mm
18:23 -8 °C -11.1 °C 34130.9 hPa SW 2.3 km/h 8.9 km/h 70 % 0 mm
18:28 -8.1 °C -11.2 °C 34130.9 hPa SW 2.6 km/h 8.9 km/h 70 % 0 mm
18:33 -8.2 °C -11.2 °C 34130.9 hPa WSW 1.3 km/h 6.9 km/h 70 % 0 mm
18:38 -8.2 °C -11.2 °C 34130.9 hPa Calm   2.9 km/h 71 % 0 mm
18:43 -8.3 °C -11.2 °C 34130.9 hPa Calm   3.4 km/h 71 % 0 mm
18:48 -8.3 °C -11.2 °C 34130.9 hPa South 1.3 km/h 6.9 km/h 72 % 0 mm
18:53 -8.4 °C -11.2 °C 34130.9 hPa South 2.6 km/h 6.9 km/h 72 % 0 mm
18:58 -8.4 °C -11.2 °C 34130.9 hPa South 2.9 km/h 5.6 km/h 73 % 0 mm
19:03 -8.6 °C -11.3 °C 34130.9 hPa SSW 2.6 km/h 5.1 km/h 73 % 0 mm
19:08 -8.6 °C -11.2 °C 34130.9 hPa SSW 1.8 km/h 4.2 km/h 74 % 0 mm
19:13 -8.7 °C -11.2 °C 34130.9 hPa SSW 0.8 km/h 4.2 km/h 75 % 0 mm
19:18 -8.8 °C -11.2 °C 34130.9 hPa SW 2.3 km/h 6.4 km/h 75 % 0 mm
19:23 -8.9 °C -11.2 °C 34130.9 hPa SW 4.2 km/h 6.4 km/h 77 % 0 mm
19:28 -9 °C -11.2 °C 34130.9 hPa WSW 1.3 km/h 6.4 km/h 78 % 0 mm
19:33 -9.1 °C -11.2 °C 34130.9 hPa West 0.3 km/h 3.4 km/h 78 % 0 mm
19:38 -9.3 °C -11.3 °C 34130.9 hPa Calm   6.4 km/h 79 % 0 mm
19:43 -9.4 °C -11.3 °C 34130.9 hPa North 0.3 km/h 6.4 km/h 80 % 0 mm
19:48 -9.5 °C -11.4 °C 34130.9 hPa NW 0.3 km/h 5.1 km/h 80 % 0 mm
19:53 -9.6 °C -11.4 °C 34130.9 hPa Calm   3.4 km/h 81 % 0 mm
19:58 -9.7 °C -11.4 °C 34130.9 hPa Calm   3.4 km/h 81 % 0 mm
20:03 -9.8 °C -11.4 °C 34130.9 hPa Calm   3.4 km/h 82 % 0 mm
20:08 -9.9 °C -11.6 °C 34130.9 hPa Calm     82 % 0 mm
20:13 -10 °C -11.6 °C 34130.9 hPa WNW 1 km/h 5.1 km/h 83 % 0 mm
20:18 -10.1 °C -11.6 °C 34130.9 hPa WNW 1.6 km/h 5.1 km/h 83 % 0 mm
20:23 -10.1 °C -11.6 °C 34130.9 hPa NNW 0.8 km/h 4.2 km/h 84 % 0 mm
20:28 -10.1 °C -11.6 °C 34130.9 hPa Calm     84 % 0 mm
20:33 -10.2 °C -11.6 °C 34164.7 hPa Calm     85 % 0 mm
20:38 -10.2 °C -11.6 °C 34164.7 hPa Calm     85 % 0 mm
20:43 -10.2 °C -11.6 °C 34164.7 hPa Calm     85 % 0 mm
20:48 -10.3 °C -11.7 °C 34164.7 hPa Calm     85 % 0 mm
20:53 -10.4 °C -11.7 °C 34164.7 hPa Calm   2.3 km/h 86 % 0 mm
20:58 -10.4 °C -11.6 °C 34164.7 hPa Calm   2.3 km/h 87 % 0 mm
21:03 -10.5 °C -11.7 °C 34164.7 hPa Calm     87 % 0 mm
21:08 -10.6 °C -11.7 °C 34164.7 hPa Calm     87 % 0 mm
21:13 -10.6 °C -11.7 °C 34164.7 hPa Calm     88 % 0 mm
21:18 -10.6 °C -11.7 °C 34198.6 hPa WNW 0.8 km/h 6.4 km/h 88 % 0 mm
21:23 -10.7 °C -11.8 °C 34198.6 hPa WNW 1 km/h 6.4 km/h 88 % 0 mm
21:28 -10.7 °C -11.8 °C 34198.6 hPa West 0.3 km/h 5.6 km/h 88 % 0 mm
21:33 -10.8 °C -11.8 °C 34164.7 hPa WNW 1.3 km/h 6.9 km/h 89 % 0 mm
21:38 -10.8 °C -11.8 °C 34164.7 hPa WNW 1.6 km/h 6.9 km/h 89 % 0 mm
21:43 -10.8 °C -11.8 °C 34164.7 hPa North 0.3 km/h   89 % 0 mm
21:48 -10.9 °C -11.9 °C 34198.6 hPa Calm     89 % 0 mm
21:53 -11 °C -12 °C 34198.6 hPa Calm     89 % 0 mm
21:58 -11.1 °C -12.1 °C 34198.6 hPa Calm     89 % 0 mm
22:03 -11.2 °C -12.1 °C 34164.7 hPa Calm     90 % 0 mm
22:08 -11.3 °C -12.3 °C 34164.7 hPa Calm     89 % 0 mm
22:13 -11.4 °C -12.4 °C 34164.7 hPa Calm     89 % 0 mm
22:18 -11.4 °C -12.3 °C 34198.6 hPa Calm     90 % 0 mm
22:23 -11.5 °C -12.4 °C 34198.6 hPa Calm     90 % 0 mm
22:28 -11.6 °C -12.5 °C 34198.6 hPa Calm     90 % 0 mm
22:33 -11.7 °C -12.6 °C 34164.7 hPa Calm     90 % 0 mm
22:38 -11.8 °C -12.7 °C 34164.7 hPa Calm     90 % 0 mm
22:43 -11.9 °C -12.8 °C 34164.7 hPa Calm     90 % 0 mm
22:48 -11.9 °C -12.8 °C 34198.6 hPa Calm     90 % 0 mm
22:53 -12.1 °C -12.9 °C 34198.6 hPa Calm     90 % 0 mm
22:58 -12.1 °C -12.9 °C 34198.6 hPa Calm     91 % 0 mm
23:03 -12.2 °C -12.9 °C 34164.7 hPa Calm     91 % 0 mm
23:08 -12.2 °C -13 °C 34164.7 hPa Calm     91 % 0 mm
23:13 -12.3 °C -13.1 °C 34164.7 hPa Calm     91 % 0 mm
23:18 -12.3 °C -13.1 °C 34198.6 hPa Calm     91 % 0 mm
23:23 -12.4 °C -13.1 °C 34198.6 hPa Calm     92 % 0 mm
23:28 -12.4 °C -13.1 °C 34198.6 hPa Calm     92 % 0 mm
23:33 -12.5 °C -13.3 °C 34198.6 hPa Calm     91 % 0 mm
23:38 -12.6 °C -13.3 °C 34198.6 hPa Calm     91 % 0 mm
23:43 -12.6 °C -13.3 °C 34198.6 hPa Calm     92 % 0 mm
23:48 -12.6 °C -13.3 °C 34198.6 hPa Calm     92 % 0 mm
23:53 -12.7 °C -13.4 °C 34198.6 hPa Calm     92 % 0 mm
23:58 -12.7 °C -13.4 °C 34198.6 hPa Calm     92 % 0 mm
Vremenska postaja Senovo
Podatki zbrani iz Weather Underground - 3 mb

Script developed by  Jim McMurry - jmcmurry@mwt.net Adapted for the template by  Wim van der Kuil - Leuven-Template.eu

Vremenski podatki so objavljeni na:

European Weather Network

WeatherCloud

Weather Underground

AWEKAS

HAMweather, WeatherForYou, PWS Weather

MapView

Geostik

Slovenia weather network

Oprema, ki se uporablja:

Vremenski program
Cumulus

Vremenski server
Asus

Cumulus

Asus